PWSweather.com
Personal Weather Stations
Station Observations
K4FB1
Clubhouse Heritage, Lakeland, FL 33812

Clubhouse HeritageLakeland, FL 33812

Lat: 27.969224, Lon: -81.897769

Elevation: 145

Station Type: Davis Vantage Pro2

http://www.ClubhouseWX.com

High Low Average
Temperature 86.8°F30.4°C 67.9°F19.9°C 75.4°F24.1°C
Dew Point 74.1°F23.4°C -36.4°F-38.0°C 11.4°F-11.4°C
Winds 5.0 mph 8.0 kmh Calm Calm 2.0 mph S3.2 kmh S
Wind Gusts 10.0 mph16.1 kmh -- 5.0 mph8.0 kmh
Humidity 68% 0% 25%
Pressure 30.18 in1022.0 mb 30.00 in1015.9 mb -
Precipitation 0.00 in0.0 mm - -
Hour Temp Dew Point Humidity Winds Wind Gusts Pressure Precip Precip Rate Daily Precip Total
12:00 AM 70.2°F21.2°C 38.9°F3.8°C 32% 2.0 mph S3.2 kmh S 4.0 mph6.4 kmh 30.00 in1015.9 mb 0.00 in0.0 mm 0.00 in0.0 mm 0.00 in0.0 mm
12:05 AM 70.1°F21.2°C 38.9°F3.8°C 32% 2.0 mph S3.2 kmh S 4.0 mph6.4 kmh 30.00 in1015.9 mb 0.00 in0.0 mm 0.00 in0.0 mm 0.00 in0.0 mm
12:10 AM 69.9°F21.1°C 37.0°F2.8°C 30% 2.0 mph S3.2 kmh S 4.0 mph6.4 kmh 30.00 in1015.9 mb 0.00 in0.0 mm 0.00 in0.0 mm 0.00 in0.0 mm
12:15 AM 69.8°F21.0°C 36.1°F2.3°C 29% 2.0 mph S3.2 kmh S 3.0 mph4.8 kmh 30.01 in1016.3 mb 0.00 in0.0 mm 0.00 in0.0 mm 0.00 in0.0 mm
12:20 AM 69.8°F21.0°C 34.3°F1.3°C 27% 2.0 mph S3.2 kmh S 4.0 mph6.4 kmh 30.01 in1016.3 mb 0.00 in0.0 mm 0.00 in0.0 mm 0.00 in0.0 mm
12:25 AM 69.8°F21.0°C 34.3°F1.3°C 27% 2.0 mph S3.2 kmh S 4.0 mph6.4 kmh 30.01 in1016.3 mb 0.00 in0.0 mm 0.00 in0.0 mm 0.00 in0.0 mm
12:30 AM 69.7°F20.9°C 33.3°F0.7°C 26% 2.0 mph S3.2 kmh S 3.0 mph4.8 kmh 30.01 in1016.3 mb 0.00 in0.0 mm 0.00 in0.0 mm 0.00 in0.0 mm
12:35 AM 69.7°F20.9°C 32.3°F0.2°C 25% 2.0 mph S3.2 kmh S 4.0 mph6.4 kmh 30.01 in1016.3 mb 0.00 in0.0 mm 0.00 in0.0 mm 0.00 in0.0 mm
12:40 AM 69.6°F20.9°C 32.2°F0.1°C 25% 2.0 mph S3.2 kmh S 4.0 mph6.4 kmh 30.01 in1016.3 mb 0.00 in0.0 mm 0.00 in0.0 mm 0.00 in0.0 mm
12:45 AM 69.5°F20.8°C 29.0°F-1.7°C 22% 2.0 mph S3.2 kmh S 4.0 mph6.4 kmh 30.01 in1016.3 mb 0.00 in0.0 mm 0.00 in0.0 mm 0.00 in0.0 mm
12:50 AM 69.4°F20.8°C 27.7°F-2.4°C 21% 2.0 mph S3.2 kmh S 4.0 mph6.4 kmh 30.01 in1016.3 mb 0.00 in0.0 mm 0.00 in0.0 mm 0.00 in0.0 mm
12:55 AM 69.3°F20.7°C 26.5°F-3.1°C 20% 2.0 mph S3.2 kmh S 4.0 mph6.4 kmh 30.01 in1016.3 mb 0.00 in0.0 mm 0.00 in0.0 mm 0.00 in0.0 mm
01:00 AM 69.3°F20.7°C 25.2°F-3.8°C 19% 2.0 mph S3.2 kmh S 5.0 mph8.0 kmh 30.01 in1016.3 mb 0.00 in0.0 mm 0.00 in0.0 mm 0.00 in0.0 mm
01:05 AM 69.3°F20.7°C 25.2°F-3.8°C 19% 3.0 mph S4.8 kmh S 5.0 mph8.0 kmh 30.01 in1016.3 mb 0.00 in0.0 mm 0.00 in0.0 mm 0.00 in0.0 mm
01:10 AM 69.3°F20.7°C 25.2°F-3.8°C 19% 2.0 mph S3.2 kmh S 4.0 mph6.4 kmh 30.01 in1016.3 mb 0.00 in0.0 mm 0.00 in0.0 mm 0.00 in0.0 mm
01:15 AM 69.2°F20.7°C 25.1°F-3.8°C 19% 2.0 mph S3.2 kmh S 3.0 mph4.8 kmh 30.01 in1016.3 mb 0.00 in0.0 mm 0.00 in0.0 mm 0.00 in0.0 mm
01:20 AM 69.1°F20.6°C 22.4°F-5.3°C 17% 2.0 mph S3.2 kmh S 3.0 mph4.8 kmh 30.01 in1016.3 mb 0.00 in0.0 mm 0.00 in0.0 mm 0.00 in0.0 mm
01:25 AM 69.0°F20.6°C 22.3°F-5.4°C 17% 2.0 mph S3.2 kmh S 3.0 mph4.8 kmh 30.01 in1016.3 mb 0.00 in0.0 mm 0.00 in0.0 mm 0.00 in0.0 mm
01:30 AM 68.9°F20.5°C 19.3°F-7.1°C 15% 2.0 mph S3.2 kmh S 3.0 mph4.8 kmh 30.01 in1016.3 mb 0.00 in0.0 mm 0.00 in0.0 mm 0.00 in0.0 mm
01:35 AM 68.8°F20.4°C 17.6°F-8.0°C 14% 2.0 mph S3.2 kmh S 3.0 mph4.8 kmh 30.01 in1016.3 mb 0.00 in0.0 mm 0.00 in0.0 mm 0.00 in0.0 mm
01:40 AM 68.7°F20.4°C 19.1°F-7.2°C 15% 1.0 mph S1.6 kmh S 3.0 mph4.8 kmh 30.01 in1016.3 mb 0.00 in0.0 mm 0.00 in0.0 mm 0.00 in0.0 mm
01:45 AM 68.6°F20.3°C 19.1°F-7.2°C 15% 1.0 mph S1.6 kmh S 2.0 mph3.2 kmh 30.01 in1016.3 mb 0.00 in0.0 mm 0.00 in0.0 mm 0.00 in0.0 mm
01:50 AM 68.4°F20.2°C 17.3°F-8.2°C 14% 1.0 mph S1.6 kmh S 3.0 mph4.8 kmh 30.01 in1016.3 mb 0.00 in0.0 mm 0.00 in0.0 mm 0.00 in0.0 mm
01:55 AM 68.3°F20.2°C 15.5°F-9.2°C 13% 1.0 mph S1.6 kmh S 3.0 mph4.8 kmh 30.01 in1016.3 mb 0.00 in0.0 mm 0.00 in0.0 mm 0.00 in0.0 mm
02:00 AM 68.1°F20.1°C 13.5°F-10.3°C 12% 1.0 mph S1.6 kmh S 2.0 mph3.2 kmh 30.01 in1016.3 mb 0.00 in0.0 mm 0.00 in0.0 mm 0.00 in0.0 mm
02:05 AM 68.0°F20.0°C 11.5°F-11.4°C 11% 1.0 mph S1.6 kmh S 2.0 mph3.2 kmh 30.01 in1016.3 mb 0.00 in0.0 mm 0.00 in0.0 mm 0.00 in0.0 mm
02:10 AM 67.9°F19.9°C 4.3°F-15.4°C 8% 1.0 mph S1.6 kmh S 3.0 mph4.8 kmh 30.00 in1015.9 mb 0.00 in0.0 mm 0.00 in0.0 mm 0.00 in0.0 mm
02:15 AM 67.9°F19.9°C 1.4°F-17.0°C 7% 1.0 mph S1.6 kmh S 3.0 mph4.8 kmh 30.01 in1016.3 mb 0.00 in0.0 mm 0.00 in0.0 mm 0.00 in0.0 mm
02:20 AM 67.9°F19.9°C -16.0°F-26.7°C 3% 1.0 mph S1.6 kmh S 3.0 mph4.8 kmh 30.01 in1016.3 mb 0.00 in0.0 mm 0.00 in0.0 mm 0.00 in0.0 mm
02:25 AM 68.0°F20.0°C -36.4°F-38.0°C 1% 1.0 mph S1.6 kmh S 4.0 mph6.4 kmh 30.01 in1016.3 mb 0.00 in0.0 mm 0.00 in0.0 mm 0.00 in0.0 mm
02:30 AM 68.1°F20.1°C -36.4°F-38.0°C 0% 2.0 mph S3.2 kmh S 6.0 mph9.7 kmh 30.01 in1016.3 mb 0.00 in0.0 mm 0.00 in0.0 mm 0.00 in0.0 mm
02:35 AM 68.4°F20.2°C -36.2°F-37.9°C 1% 2.0 mph S3.2 kmh S 6.0 mph9.7 kmh 30.01 in1016.3 mb 0.00 in0.0 mm 0.00 in0.0 mm 0.00 in0.0 mm
02:40 AM 68.6°F20.3°C -36.1°F-37.8°C 1% 2.0 mph S3.2 kmh S 5.0 mph8.0 kmh 30.01 in1016.3 mb 0.00 in0.0 mm 0.00 in0.0 mm 0.00 in0.0 mm
02:45 AM 68.9°F20.5°C -36.1°F-37.8°C 0% 3.0 mph S4.8 kmh S 5.0 mph8.0 kmh 30.01 in1016.3 mb 0.00 in0.0 mm 0.00 in0.0 mm 0.00 in0.0 mm
02:50 AM 69.1°F20.6°C -23.0°F-30.6°C 2% 3.0 mph S4.8 kmh S 5.0 mph8.0 kmh 30.01 in1016.3 mb 0.00 in0.0 mm 0.00 in0.0 mm 0.00 in0.0 mm
02:55 AM 69.3°F20.7°C -15.1°F-26.2°C 3% 3.0 mph S4.8 kmh S 6.0 mph9.7 kmh 30.01 in1016.3 mb 0.00 in0.0 mm 0.00 in0.0 mm 0.00 in0.0 mm
03:00 AM 69.5°F20.8°C -0.7°F-18.2°C 6% 3.0 mph SSE4.8 kmh SSE 6.0 mph9.7 kmh 30.01 in1016.3 mb 0.00 in0.0 mm 0.00 in0.0 mm 0.00 in0.0 mm
03:05 AM 69.7°F20.9°C 5.7°F-14.6°C 8% 3.0 mph S4.8 kmh S 6.0 mph9.7 kmh 30.01 in1016.3 mb 0.00 in0.0 mm 0.00 in0.0 mm 0.00 in0.0 mm
03:10 AM 69.8°F21.0°C 8.3°F-13.2°C 9% 3.0 mph S4.8 kmh S 6.0 mph9.7 kmh 30.01 in1016.3 mb 0.00 in0.0 mm 0.00 in0.0 mm 0.00 in0.0 mm
03:15 AM 70.0°F21.1°C 10.9°F-11.7°C 10% 3.0 mph S4.8 kmh S 7.0 mph11.3 kmh 30.01 in1016.3 mb 0.00 in0.0 mm 0.00 in0.0 mm 0.00 in0.0 mm
03:20 AM 70.1°F21.2°C 10.9°F-11.7°C 10% 4.0 mph S6.4 kmh S 7.0 mph11.3 kmh 30.01 in1016.3 mb 0.00 in0.0 mm 0.00 in0.0 mm 0.00 in0.0 mm
03:25 AM 70.3°F21.3°C 13.2°F-10.4°C 11% 4.0 mph S6.4 kmh S 6.0 mph9.7 kmh 30.01 in1016.3 mb 0.00 in0.0 mm 0.00 in0.0 mm 0.00 in0.0 mm
03:30 AM 70.4°F21.3°C 13.3°F-10.4°C 11% 4.0 mph S6.4 kmh S 8.0 mph12.9 kmh 30.01 in1016.3 mb 0.00 in0.0 mm 0.00 in0.0 mm 0.00 in0.0 mm
03:35 AM 70.5°F21.4°C 13.4°F-10.3°C 11% 4.0 mph S6.4 kmh S 8.0 mph12.9 kmh 30.00 in1015.9 mb 0.00 in0.0 mm 0.00 in0.0 mm 0.00 in0.0 mm
03:40 AM 70.6°F21.4°C 17.3°F-8.2°C 13% 5.0 mph S8.0 kmh S 9.0 mph14.5 kmh 30.00 in1015.9 mb 0.00 in0.0 mm 0.00 in0.0 mm 0.00 in0.0 mm
03:45 AM 70.6°F21.4°C 19.0°F-7.2°C 14% 4.0 mph S6.4 kmh S 9.0 mph14.5 kmh 30.00 in1015.9 mb 0.00 in0.0 mm 0.00 in0.0 mm 0.00 in0.0 mm
03:50 AM 70.6°F21.4°C 20.7°F-6.3°C 15% 5.0 mph S8.0 kmh S 10.0 mph16.1 kmh 30.00 in1015.9 mb 0.00 in0.0 mm 0.00 in0.0 mm 0.00 in0.0 mm
03:55 AM 70.6°F21.4°C 20.7°F-6.3°C 15% 5.0 mph S8.0 kmh S 10.0 mph16.1 kmh 30.00 in1015.9 mb 0.00 in0.0 mm 0.00 in0.0 mm 0.00 in0.0 mm
04:00 AM 70.5°F21.4°C 19.0°F-7.2°C 14% 4.0 mph S6.4 kmh S 8.0 mph12.9 kmh 30.00 in1015.9 mb 0.00 in0.0 mm 0.00 in0.0 mm 0.00 in0.0 mm
04:05 AM 70.4°F21.3°C 17.2°F-8.2°C 13% 4.0 mph S6.4 kmh S 8.0 mph12.9 kmh 30.00 in1015.9 mb 0.00 in0.0 mm 0.00 in0.0 mm 0.00 in0.0 mm
04:10 AM 70.2°F21.2°C 15.1°F-9.4°C 12% 4.0 mph S6.4 kmh S 6.0 mph9.7 kmh 30.00 in1015.9 mb 0.00 in0.0 mm 0.00 in0.0 mm 0.00 in0.0 mm
04:15 AM 70.1°F21.2°C 10.9°F-11.7°C 10% 3.0 mph S4.8 kmh S 5.0 mph8.0 kmh 30.00 in1015.9 mb 0.00 in0.0 mm 0.00 in0.0 mm 0.00 in0.0 mm
04:20 AM 70.0°F21.1°C 5.9°F-14.5°C 8% 2.0 mph S3.2 kmh S 5.0 mph8.0 kmh 30.00 in1015.9 mb 0.00 in0.0 mm 0.00 in0.0 mm 0.00 in0.0 mm
04:25 AM 69.8°F21.0°C 2.8°F-16.2°C 7% 3.0 mph SSE4.8 kmh SSE 5.0 mph8.0 kmh 30.00 in1015.9 mb 0.00 in0.0 mm 0.00 in0.0 mm 0.00 in0.0 mm
04:30 AM 69.6°F20.9°C -4.5°F-20.3°C 5% 3.0 mph SSE4.8 kmh SSE 5.0 mph8.0 kmh 30.00 in1015.9 mb 0.00 in0.0 mm 0.00 in0.0 mm 0.00 in0.0 mm
04:35 AM 69.5°F20.8°C -14.9°F-26.1°C 3% 3.0 mph SSE4.8 kmh SSE 6.0 mph9.7 kmh 30.00 in1015.9 mb 0.00 in0.0 mm 0.00 in0.0 mm 0.00 in0.0 mm
04:40 AM 69.4°F20.8°C -35.6°F-37.6°C 0% 3.0 mph SSE4.8 kmh SSE 8.0 mph12.9 kmh 30.00 in1015.9 mb 0.00 in0.0 mm 0.00 in0.0 mm 0.00 in0.0 mm
04:45 AM 69.3°F20.7°C -35.6°F-37.6°C 0% 4.0 mph SSE6.4 kmh SSE 8.0 mph12.9 kmh 30.00 in1015.9 mb 0.00 in0.0 mm 0.00 in0.0 mm 0.00 in0.0 mm
04:50 AM 69.2°F20.7°C -35.6°F-37.6°C 0% 3.0 mph SSE4.8 kmh SSE 7.0 mph11.3 kmh 30.00 in1015.9 mb 0.00 in0.0 mm 0.00 in0.0 mm 0.00 in0.0 mm
04:55 AM 69.0°F20.6°C -35.6°F-37.6°C 0% 3.0 mph SSE4.8 kmh SSE 5.0 mph8.0 kmh 30.00 in1015.9 mb 0.00 in0.0 mm 0.00 in0.0 mm 0.00 in0.0 mm
05:00 AM 69.0°F20.6°C -35.6°F-37.6°C 0% 3.0 mph SSE4.8 kmh SSE 5.0 mph8.0 kmh 30.00 in1015.9 mb 0.00 in0.0 mm 0.00 in0.0 mm 0.00 in0.0 mm
05:05 AM 68.9°F20.5°C -35.6°F-37.6°C 0% 3.0 mph SSE4.8 kmh SSE 5.0 mph8.0 kmh 30.00 in1015.9 mb 0.00 in0.0 mm 0.00 in0.0 mm 0.00 in0.0 mm
05:10 AM 68.8°F20.4°C -35.6°F-37.6°C 0% 3.0 mph SSE4.8 kmh SSE 5.0 mph8.0 kmh 30.00 in1015.9 mb 0.00 in0.0 mm 0.00 in0.0 mm 0.00 in0.0 mm
05:15 AM 68.8°F20.4°C -35.6°F-37.6°C 0% 3.0 mph SSE4.8 kmh SSE 7.0 mph11.3 kmh 30.00 in1015.9 mb 0.00 in0.0 mm 0.00 in0.0 mm 0.00 in0.0 mm
05:20 AM 68.8°F20.4°C -35.6°F-37.6°C 0% 3.0 mph SSE4.8 kmh SSE 7.0 mph11.3 kmh 30.00 in1015.9 mb 0.00 in0.0 mm 0.00 in0.0 mm 0.00 in0.0 mm
05:25 AM 68.8°F20.4°C -35.6°F-37.6°C 0% 3.0 mph SSE4.8 kmh SSE 5.0 mph8.0 kmh 30.00 in1015.9 mb 0.00 in0.0 mm 0.00 in0.0 mm 0.00 in0.0 mm
05:30 AM 68.9°F20.5°C -35.6°F-37.6°C 0% 3.0 mph SSE4.8 kmh SSE 5.0 mph8.0 kmh 30.00 in1015.9 mb 0.00 in0.0 mm 0.00 in0.0 mm 0.00 in0.0 mm
05:35 AM 68.9°F20.5°C -35.6°F-37.6°C 0% 3.0 mph SSE4.8 kmh SSE 5.0 mph8.0 kmh 30.00 in1015.9 mb 0.00 in0.0 mm 0.00 in0.0 mm 0.00 in0.0 mm
05:40 AM 69.0°F20.6°C -35.6°F-37.6°C 0% 3.0 mph SSE4.8 kmh SSE 5.0 mph8.0 kmh 30.00 in1015.9 mb 0.00 in0.0 mm 0.00 in0.0 mm 0.00 in0.0 mm
05:45 AM 69.1°F20.6°C -35.6°F-37.6°C 0% 3.0 mph SSE4.8 kmh SSE 5.0 mph8.0 kmh 30.00 in1015.9 mb 0.00 in0.0 mm 0.00 in0.0 mm 0.00 in0.0 mm
05:50 AM 69.3°F20.7°C -35.6°F-37.6°C 0% 3.0 mph SSE4.8 kmh SSE 5.0 mph8.0 kmh 30.00 in1015.9 mb 0.00 in0.0 mm 0.00 in0.0 mm 0.00 in0.0 mm
05:55 AM 69.4°F20.8°C -35.6°F-37.6°C 0% 3.0 mph SSE4.8 kmh SSE 5.0 mph8.0 kmh 30.00 in1015.9 mb 0.00 in0.0 mm 0.00 in0.0 mm 0.00 in0.0 mm
06:00 AM 69.6°F20.9°C -35.6°F-37.6°C 0% 3.0 mph SSE4.8 kmh SSE 5.0 mph8.0 kmh 30.00 in1015.9 mb 0.00 in0.0 mm 0.00 in0.0 mm 0.00 in0.0 mm
06:05 AM 69.8°F21.0°C -35.6°F-37.6°C 0% 3.0 mph SSE4.8 kmh SSE 5.0 mph8.0 kmh 30.00 in1015.9 mb 0.00 in0.0 mm 0.00 in0.0 mm 0.00 in0.0 mm
06:10 AM 69.9°F21.1°C -35.6°F-37.6°C 0% 3.0 mph SSE4.8 kmh SSE 6.0 mph9.7 kmh 30.00 in1015.9 mb 0.00 in0.0 mm 0.00 in0.0 mm 0.00 in0.0 mm
06:15 AM 70.0°F21.1°C -35.6°F-37.6°C 0% 2.0 mph SSE3.2 kmh SSE 6.0 mph9.7 kmh 30.01 in1016.3 mb 0.00 in0.0 mm 0.00 in0.0 mm 0.00 in0.0 mm
06:20 AM 70.1°F21.2°C -35.6°F-37.6°C 0% 2.0 mph S3.2 kmh S 4.0 mph6.4 kmh 30.01 in1016.3 mb 0.00 in0.0 mm 0.00 in0.0 mm 0.00 in0.0 mm
06:25 AM 70.2°F21.2°C -35.6°F-37.6°C 0% 2.0 mph SSE3.2 kmh SSE 5.0 mph8.0 kmh 30.01 in1016.3 mb 0.00 in0.0 mm 0.00 in0.0 mm 0.00 in0.0 mm
06:30 AM 70.4°F21.3°C -35.6°F-37.6°C 0% 2.0 mph SSE3.2 kmh SSE 5.0 mph8.0 kmh 30.01 in1016.3 mb 0.00 in0.0 mm 0.00 in0.0 mm 0.00 in0.0 mm
06:35 AM 70.5°F21.4°C -35.6°F-37.6°C 0% 3.0 mph SSE4.8 kmh SSE 5.0 mph8.0 kmh 30.01 in1016.3 mb 0.00 in0.0 mm 0.00 in0.0 mm 0.00 in0.0 mm
06:40 AM 70.5°F21.4°C -35.6°F-37.6°C 0% 3.0 mph SSE4.8 kmh SSE 6.0 mph9.7 kmh 30.01 in1016.3 mb 0.00 in0.0 mm 0.00 in0.0 mm 0.00 in0.0 mm
06:45 AM 70.6°F21.4°C -35.6°F-37.6°C 0% 3.0 mph SSE4.8 kmh SSE 6.0 mph9.7 kmh 30.01 in1016.3 mb 0.00 in0.0 mm 0.00 in0.0 mm 0.00 in0.0 mm
06:50 AM 70.6°F21.4°C -35.6°F-37.6°C 0% 3.0 mph SSE4.8 kmh SSE 5.0 mph8.0 kmh 30.01 in1016.3 mb 0.00 in0.0 mm 0.00 in0.0 mm 0.00 in0.0 mm
06:55 AM 70.7°F21.5°C -35.6°F-37.6°C 0% 3.0 mph SSE4.8 kmh SSE 6.0 mph9.7 kmh 30.01 in1016.3 mb 0.00 in0.0 mm 0.00 in0.0 mm 0.00 in0.0 mm
07:00 AM 70.7°F21.5°C -35.6°F-37.6°C 0% 3.0 mph SSE4.8 kmh SSE 6.0 mph9.7 kmh 30.01 in1016.3 mb 0.00 in0.0 mm 0.00 in0.0 mm 0.00 in0.0 mm
07:05 AM 70.7°F21.5°C -35.6°F-37.6°C 0% 3.0 mph SSE4.8 kmh SSE 6.0 mph9.7 kmh 30.02 in1016.6 mb 0.00 in0.0 mm 0.00 in0.0 mm 0.00 in0.0 mm
07:10 AM 70.6°F21.4°C -35.6°F-37.6°C 0% 3.0 mph SSE4.8 kmh SSE 5.0 mph8.0 kmh 30.02 in1016.6 mb 0.00 in0.0 mm 0.00 in0.0 mm 0.00 in0.0 mm
07:15 AM 70.6°F21.4°C -35.6°F-37.6°C 0% 3.0 mph SE4.8 kmh SE 6.0 mph9.7 kmh 30.02 in1016.6 mb 0.00 in0.0 mm 0.00 in0.0 mm 0.00 in0.0 mm
07:20 AM 70.5°F21.4°C -35.6°F-37.6°C 0% 3.0 mph SE4.8 kmh SE 6.0 mph9.7 kmh 30.02 in1016.6 mb 0.00 in0.0 mm 0.00 in0.0 mm 0.00 in0.0 mm
07:25 AM 70.4°F21.3°C -35.6°F-37.6°C 0% 3.0 mph SSE4.8 kmh SSE 5.0 mph8.0 kmh 30.02 in1016.6 mb 0.00 in0.0 mm 0.00 in0.0 mm 0.00 in0.0 mm
07:30 AM 70.4°F21.3°C -35.6°F-37.6°C 0% 3.0 mph SE4.8 kmh SE 5.0 mph8.0 kmh 30.02 in1016.6 mb 0.00 in0.0 mm 0.00 in0.0 mm 0.00 in0.0 mm
07:35 AM 70.3°F21.3°C -35.6°F-37.6°C 0% 3.0 mph SSE4.8 kmh SSE 5.0 mph8.0 kmh 30.03 in1016.9 mb 0.00 in0.0 mm 0.00 in0.0 mm 0.00 in0.0 mm
07:40 AM 70.2°F21.2°C -35.6°F-37.6°C 0% 2.0 mph SSE3.2 kmh SSE 4.0 mph6.4 kmh 30.03 in1016.9 mb 0.00 in0.0 mm 0.00 in0.0 mm 0.00 in0.0 mm
07:45 AM 70.1°F21.2°C -35.6°F-37.6°C 0% 2.0 mph SSE3.2 kmh SSE 4.0 mph6.4 kmh 30.03 in1016.9 mb 0.00 in0.0 mm 0.00 in0.0 mm 0.00 in0.0 mm
07:50 AM 69.9°F21.1°C -35.6°F-37.6°C 0% 2.0 mph SSE3.2 kmh SSE 3.0 mph4.8 kmh 30.03 in1016.9 mb 0.00 in0.0 mm 0.00 in0.0 mm 0.00 in0.0 mm
07:55 AM 69.7°F20.9°C -35.6°F-37.6°C 0% 2.0 mph SSE3.2 kmh SSE 3.0 mph4.8 kmh 30.03 in1016.9 mb 0.00 in0.0 mm 0.00 in0.0 mm 0.00 in0.0 mm
08:00 AM 69.5°F20.8°C -35.6°F-37.6°C 0% 1.0 mph SSE1.6 kmh SSE 3.0 mph4.8 kmh 30.04 in1017.3 mb 0.00 in0.0 mm 0.00 in0.0 mm 0.00 in0.0 mm
08:05 AM 69.4°F20.8°C -35.6°F-37.6°C 0% 1.0 mph SSE1.6 kmh SSE 3.0 mph4.8 kmh 30.04 in1017.3 mb 0.00 in0.0 mm 0.00 in0.0 mm 0.00 in0.0 mm
08:10 AM 69.5°F20.8°C -35.6°F-37.6°C 0% 2.0 mph SSE3.2 kmh SSE 3.0 mph4.8 kmh 30.04 in1017.3 mb 0.00 in0.0 mm 0.00 in0.0 mm 0.00 in0.0 mm
08:15 AM 69.7°F20.9°C -35.6°F-37.6°C 0% 2.0 mph SSE3.2 kmh SSE 3.0 mph4.8 kmh 30.04 in1017.3 mb 0.00 in0.0 mm 0.00 in0.0 mm 0.00 in0.0 mm
08:20 AM 69.9°F21.1°C -35.6°F-37.6°C 0% 2.0 mph SSE3.2 kmh SSE 3.0 mph4.8 kmh 30.04 in1017.3 mb 0.00 in0.0 mm 0.00 in0.0 mm 0.00 in0.0 mm
08:25 AM 70.2°F21.2°C -35.6°F-37.6°C 0% 2.0 mph SSE3.2 kmh SSE 5.0 mph8.0 kmh 30.04 in1017.3 mb 0.00 in0.0 mm 0.00 in0.0 mm 0.00 in0.0 mm
08:30 AM 70.5°F21.4°C -35.6°F-37.6°C 0% 2.0 mph S3.2 kmh S 5.0 mph8.0 kmh 30.05 in1017.6 mb 0.00 in0.0 mm 0.00 in0.0 mm 0.00 in0.0 mm
08:35 AM 71.0°F21.7°C -35.6°F-37.6°C 0% 2.0 mph SSE3.2 kmh SSE 6.0 mph9.7 kmh 30.05 in1017.6 mb 0.00 in0.0 mm 0.00 in0.0 mm 0.00 in0.0 mm
08:40 AM 71.4°F21.9°C -35.6°F-37.6°C 0% 3.0 mph SSE4.8 kmh SSE 6.0 mph9.7 kmh 30.05 in1017.6 mb 0.00 in0.0 mm 0.00 in0.0 mm 0.00 in0.0 mm
08:45 AM 71.7°F22.1°C -35.6°F-37.6°C 0% 3.0 mph SSE4.8 kmh SSE 8.0 mph12.9 kmh 30.05 in1017.6 mb 0.00 in0.0 mm 0.00 in0.0 mm 0.00 in0.0 mm
08:50 AM 72.0°F22.2°C -35.6°F-37.6°C 0% 3.0 mph SSE4.8 kmh SSE 8.0 mph12.9 kmh 30.05 in1017.6 mb 0.00 in0.0 mm 0.00 in0.0 mm 0.00 in0.0 mm
08:55 AM 72.2°F22.3°C -35.6°F-37.6°C 0% 3.0 mph SSE4.8 kmh SSE 5.0 mph8.0 kmh 30.05 in1017.6 mb 0.00 in0.0 mm 0.00 in0.0 mm 0.00 in0.0 mm
09:00 AM 72.4°F22.4°C -35.6°F-37.6°C 0% 3.0 mph S4.8 kmh S 6.0 mph9.7 kmh 30.06 in1017.9 mb 0.00 in0.0 mm 0.00 in0.0 mm 0.00 in0.0 mm
09:05 AM 72.6°F22.6°C -35.6°F-37.6°C 0% 3.0 mph S4.8 kmh S 6.0 mph9.7 kmh 30.06 in1017.9 mb 0.00 in0.0 mm 0.00 in0.0 mm 0.00 in0.0 mm
09:10 AM 72.9°F22.7°C -35.6°F-37.6°C 0% 3.0 mph SSE4.8 kmh SSE 6.0 mph9.7 kmh 30.06 in1017.9 mb 0.00 in0.0 mm 0.00 in0.0 mm 0.00 in0.0 mm
09:15 AM 73.0°F22.8°C -35.6°F-37.6°C 0% 3.0 mph SSE4.8 kmh SSE 6.0 mph9.7 kmh 30.06 in1017.9 mb 0.00 in0.0 mm 0.00 in0.0 mm 0.00 in0.0 mm
09:20 AM 73.1°F22.8°C -35.6°F-37.6°C 0% 4.0 mph S6.4 kmh S 8.0 mph12.9 kmh 30.07 in1018.3 mb 0.00 in0.0 mm 0.00 in0.0 mm 0.00 in0.0 mm
09:25 AM 73.2°F22.9°C -35.6°F-37.6°C 0% 4.0 mph S6.4 kmh S 8.0 mph12.9 kmh 30.07 in1018.3 mb 0.00 in0.0 mm 0.00 in0.0 mm 0.00 in0.0 mm
09:30 AM 73.2°F22.9°C -35.6°F-37.6°C 0% 4.0 mph S6.4 kmh S 9.0 mph14.5 kmh 30.07 in1018.3 mb 0.00 in0.0 mm 0.00 in0.0 mm 0.00 in0.0 mm
09:35 AM 73.3°F22.9°C -35.6°F-37.6°C 0% 5.0 mph S8.0 kmh S 9.0 mph14.5 kmh 30.07 in1018.3 mb 0.00 in0.0 mm 0.00 in0.0 mm 0.00 in0.0 mm
09:40 AM 73.5°F23.1°C -35.6°F-37.6°C 0% 4.0 mph S6.4 kmh S 8.0 mph12.9 kmh 30.08 in1018.6 mb 0.00 in0.0 mm 0.00 in0.0 mm 0.00 in0.0 mm
09:45 AM 73.5°F23.1°C -35.6°F-37.6°C 0% 4.0 mph SSE6.4 kmh SSE 7.0 mph11.3 kmh 30.08 in1018.6 mb 0.00 in0.0 mm 0.00 in0.0 mm 0.00 in0.0 mm
09:50 AM 73.6°F23.1°C -35.6°F-37.6°C 0% 4.0 mph S6.4 kmh S 7.0 mph11.3 kmh 30.08 in1018.6 mb 0.00 in0.0 mm 0.00 in0.0 mm 0.00 in0.0 mm
09:55 AM 73.9°F23.3°C -35.6°F-37.6°C 0% 3.0 mph S4.8 kmh S 5.0 mph8.0 kmh 30.08 in1018.6 mb 0.00 in0.0 mm 0.00 in0.0 mm 0.00 in0.0 mm
10:00 AM 74.0°F23.3°C -35.6°F-37.6°C 0% 3.0 mph S4.8 kmh S 7.0 mph11.3 kmh 30.09 in1019.0 mb 0.00 in0.0 mm 0.00 in0.0 mm 0.00 in0.0 mm
10:05 AM 74.1°F23.4°C -35.6°F-37.6°C 0% 3.0 mph S4.8 kmh S 7.0 mph11.3 kmh 30.09 in1019.0 mb 0.00 in0.0 mm 0.00 in0.0 mm 0.00 in0.0 mm
10:10 AM 74.3°F23.5°C -35.6°F-37.6°C 0% 3.0 mph SSE4.8 kmh SSE 8.0 mph12.9 kmh 30.09 in1019.0 mb 0.00 in0.0 mm 0.00 in0.0 mm 0.00 in0.0 mm
10:15 AM 74.4°F23.6°C -35.6°F-37.6°C 0% 4.0 mph S6.4 kmh S 8.0 mph12.9 kmh 30.09 in1019.0 mb 0.00 in0.0 mm 0.00 in0.0 mm 0.00 in0.0 mm
10:20 AM 74.6°F23.7°C -35.6°F-37.6°C 0% 4.0 mph S6.4 kmh S 7.0 mph11.3 kmh 30.09 in1019.0 mb 0.00 in0.0 mm 0.00 in0.0 mm 0.00 in0.0 mm
10:25 AM 74.8°F23.8°C -35.6°F-37.6°C 0% 4.0 mph S6.4 kmh S 7.0 mph11.3 kmh 30.10 in1019.3 mb 0.00 in0.0 mm 0.00 in0.0 mm 0.00 in0.0 mm
10:30 AM 75.0°F23.9°C -35.6°F-37.6°C 0% 3.0 mph S4.8 kmh S 7.0 mph11.3 kmh 30.10 in1019.3 mb 0.00 in0.0 mm 0.00 in0.0 mm 0.00 in0.0 mm
10:35 AM 75.3°F24.1°C -35.6°F-37.6°C 0% 2.0 mph S3.2 kmh S 6.0 mph9.7 kmh 30.10 in1019.3 mb 0.00 in0.0 mm 0.00 in0.0 mm 0.00 in0.0 mm
10:40 AM 75.6°F24.2°C -35.6°F-37.6°C 0% 2.0 mph S3.2 kmh S 5.0 mph8.0 kmh 30.11 in1019.6 mb 0.00 in0.0 mm 0.00 in0.0 mm 0.00 in0.0 mm
10:45 AM 75.7°F24.3°C -35.6°F-37.6°C 0% 3.0 mph S4.8 kmh S 7.0 mph11.3 kmh 30.11 in1019.6 mb 0.00 in0.0 mm 0.00 in0.0 mm 0.00 in0.0 mm
10:50 AM 75.9°F24.4°C -35.6°F-37.6°C 0% 4.0 mph S6.4 kmh S 7.0 mph11.3 kmh 30.11 in1019.6 mb 0.00 in0.0 mm 0.00 in0.0 mm 0.00 in0.0 mm
10:55 AM 76.0°F24.4°C -35.6°F-37.6°C 0% 4.0 mph S6.4 kmh S 8.0 mph12.9 kmh 30.11 in1019.6 mb 0.00 in0.0 mm 0.00 in0.0 mm 0.00 in0.0 mm
11:00 AM 76.2°F24.6°C -35.6°F-37.6°C 0% 4.0 mph S6.4 kmh S 8.0 mph12.9 kmh 30.11 in1019.6 mb 0.00 in0.0 mm 0.00 in0.0 mm 0.00 in0.0 mm
11:05 AM 76.3°F24.6°C -35.6°F-37.6°C 0% 3.0 mph SSW4.8 kmh SSW 7.0 mph11.3 kmh 30.11 in1019.6 mb 0.00 in0.0 mm 0.00 in0.0 mm 0.00 in0.0 mm
11:10 AM 76.3°F24.6°C -35.6°F-37.6°C 0% 4.0 mph SSW6.4 kmh SSW 8.0 mph12.9 kmh 30.11 in1019.6 mb 0.00 in0.0 mm 0.00 in0.0 mm 0.00 in0.0 mm
11:15 AM 76.4°F24.7°C -35.6°F-37.6°C 0% 4.0 mph S6.4 kmh S 8.0 mph12.9 kmh 30.11 in1019.6 mb 0.00 in0.0 mm 0.00 in0.0 mm 0.00 in0.0 mm
11:20 AM 76.6°F24.8°C -35.6°F-37.6°C 0% 3.0 mph S4.8 kmh S 7.0 mph11.3 kmh 30.11 in1019.6 mb 0.00 in0.0 mm 0.00 in0.0 mm 0.00 in0.0 mm
11:25 AM 76.7°F24.8°C -35.6°F-37.6°C 0% 4.0 mph S6.4 kmh S 7.0 mph11.3 kmh 30.12 in1020.0 mb 0.00 in0.0 mm 0.00 in0.0 mm 0.00 in0.0 mm
11:30 AM 76.9°F24.9°C -35.6°F-37.6°C 0% 4.0 mph S6.4 kmh S 7.0 mph11.3 kmh 30.11 in1019.6 mb 0.00 in0.0 mm 0.00 in0.0 mm 0.00 in0.0 mm
11:35 AM 77.1°F25.1°C -35.6°F-37.6°C 0% 4.0 mph S6.4 kmh S 7.0 mph11.3 kmh 30.12 in1020.0 mb 0.00 in0.0 mm 0.00 in0.0 mm 0.00 in0.0 mm
11:40 AM 77.4°F25.2°C -35.6°F-37.6°C 0% 3.0 mph S4.8 kmh S 8.0 mph12.9 kmh 30.12 in1020.0 mb 0.00 in0.0 mm 0.00 in0.0 mm 0.00 in0.0 mm
11:45 AM 77.5°F25.3°C -35.6°F-37.6°C 0% 3.0 mph S4.8 kmh S 8.0 mph12.9 kmh 30.12 in1020.0 mb 0.00 in0.0 mm 0.00 in0.0 mm 0.00 in0.0 mm
11:50 AM 77.6°F25.3°C -35.6°F-37.6°C 0% 3.0 mph S4.8 kmh S 7.0 mph11.3 kmh 30.12 in1020.0 mb 0.00 in0.0 mm 0.00 in0.0 mm 0.00 in0.0 mm
11:55 AM 77.7°F25.4°C -35.6°F-37.6°C 0% 3.0 mph S4.8 kmh S 8.0 mph12.9 kmh 30.12 in1020.0 mb 0.00 in0.0 mm 0.00 in0.0 mm 0.00 in0.0 mm
12:00 PM 77.7°F25.4°C -35.6°F-37.6°C 0% 3.0 mph SSW4.8 kmh SSW 8.0 mph12.9 kmh 30.12 in1020.0 mb 0.00 in0.0 mm 0.00 in0.0 mm 0.00 in0.0 mm
12:05 PM 77.9°F25.5°C -35.6°F-37.6°C 0% 3.0 mph SW4.8 kmh SW 7.0 mph11.3 kmh 30.13 in1020.3 mb 0.00 in0.0 mm 0.00 in0.0 mm 0.00 in0.0 mm
12:10 PM 78.0°F25.6°C -35.6°F-37.6°C 0% 3.0 mph SW4.8 kmh SW 6.0 mph9.7 kmh 30.13 in1020.3 mb 0.00 in0.0 mm 0.00 in0.0 mm 0.00 in0.0 mm
12:15 PM 78.3°F25.7°C -30.2°F-34.6°C 1% 3.0 mph SW4.8 kmh SW 6.0 mph9.7 kmh 30.13 in1020.3 mb 0.00 in0.0 mm 0.00 in0.0 mm 0.00 in0.0 mm
12:20 PM 78.5°F25.8°C 9.2°F-12.7°C 7% 3.0 mph SSW4.8 kmh SSW 9.0 mph14.5 kmh 30.13 in1020.3 mb 0.00 in0.0 mm 0.00 in0.0 mm 0.00 in0.0 mm
12:25 PM 78.8°F26.0°C 6.0°F-14.4°C 6% 3.0 mph S4.8 kmh S 9.0 mph14.5 kmh 30.12 in1020.0 mb 0.00 in0.0 mm 0.00 in0.0 mm 0.00 in0.0 mm
12:30 PM 79.3°F26.3°C 24.2°F-4.3°C 13% 3.0 mph S4.8 kmh S 6.0 mph9.7 kmh 30.12 in1020.0 mb 0.00 in0.0 mm 0.00 in0.0 mm 0.00 in0.0 mm
12:35 PM 79.6°F26.4°C 30.9°F-0.6°C 17% 3.0 mph SSW4.8 kmh SSW 5.0 mph8.0 kmh 30.12 in1020.0 mb 0.00 in0.0 mm 0.00 in0.0 mm 0.00 in0.0 mm
12:40 PM 80.0°F26.7°C 42.0°F5.6°C 26% 2.0 mph SW3.2 kmh SW 6.0 mph9.7 kmh 30.12 in1020.0 mb 0.00 in0.0 mm 0.00 in0.0 mm 0.00 in0.0 mm
12:45 PM 80.3°F26.8°C 44.2°F6.8°C 28% 2.0 mph SSW3.2 kmh SSW 7.0 mph11.3 kmh 30.12 in1020.0 mb 0.00 in0.0 mm 0.00 in0.0 mm 0.00 in0.0 mm
12:50 PM 80.8°F27.1°C 54.9°F12.7°C 41% 3.0 mph SW4.8 kmh SW 8.0 mph12.9 kmh 30.12 in1020.0 mb 0.00 in0.0 mm 0.00 in0.0 mm 0.00 in0.0 mm
12:55 PM 81.0°F27.2°C 57.7°F14.3°C 45% 4.0 mph SW6.4 kmh SW 8.0 mph12.9 kmh 30.12 in1020.0 mb 0.00 in0.0 mm 0.00 in0.0 mm 0.00 in0.0 mm
01:00 PM 81.3°F27.4°C 54.7°F12.6°C 40% 3.0 mph SW4.8 kmh SW 10.0 mph16.1 kmh 30.12 in1020.0 mb 0.00 in0.0 mm 0.00 in0.0 mm 0.00 in0.0 mm
01:05 PM 81.7°F27.6°C 61.2°F16.2°C 50% 3.0 mph SW4.8 kmh SW 10.0 mph16.1 kmh 30.12 in1020.0 mb 0.00 in0.0 mm 0.00 in0.0 mm 0.00 in0.0 mm
01:10 PM 82.1°F27.8°C 61.0°F16.1°C 49% 4.0 mph SSW6.4 kmh SSW 9.0 mph14.5 kmh 30.11 in1019.6 mb 0.00 in0.0 mm 0.00 in0.0 mm 0.00 in0.0 mm
01:15 PM 83.0°F28.3°C 65.2°F18.4°C 55% 4.0 mph SSW6.4 kmh SSW 9.0 mph14.5 kmh 30.11 in1019.6 mb 0.00 in0.0 mm 0.00 in0.0 mm 0.00 in0.0 mm
01:20 PM 83.4°F28.6°C 69.0°F20.6°C 62% 4.0 mph S6.4 kmh S 9.0 mph14.5 kmh 30.11 in1019.6 mb 0.00 in0.0 mm 0.00 in0.0 mm 0.00 in0.0 mm
01:25 PM 83.8°F28.8°C 69.4°F20.8°C 62% 5.0 mph S8.0 kmh S 9.0 mph14.5 kmh 30.11 in1019.6 mb 0.00 in0.0 mm 0.00 in0.0 mm 0.00 in0.0 mm
01:30 PM 84.3°F29.1°C 69.9°F21.1°C 62% 4.0 mph S6.4 kmh S 7.0 mph11.3 kmh 30.11 in1019.6 mb 0.00 in0.0 mm 0.00 in0.0 mm 0.00 in0.0 mm
01:35 PM 84.9°F29.4°C 71.8°F22.1°C 65% 3.0 mph SSW4.8 kmh SSW 7.0 mph11.3 kmh 30.10 in1019.3 mb 0.00 in0.0 mm 0.00 in0.0 mm 0.00 in0.0 mm
01:40 PM 85.3°F29.6°C 72.2°F22.3°C 65% 3.0 mph S4.8 kmh S 7.0 mph11.3 kmh 30.10 in1019.3 mb 0.00 in0.0 mm 0.00 in0.0 mm 0.00 in0.0 mm
01:45 PM 85.6°F29.8°C 72.9°F22.7°C 66% 4.0 mph S6.4 kmh S 7.0 mph11.3 kmh 30.10 in1019.3 mb 0.00 in0.0 mm 0.00 in0.0 mm 0.00 in0.0 mm
01:50 PM 86.2°F30.1°C 73.5°F23.1°C 66% 3.0 mph S4.8 kmh S 8.0 mph12.9 kmh 30.10 in1019.3 mb 0.00 in0.0 mm 0.00 in0.0 mm 0.00 in0.0 mm
01:55 PM 86.6°F30.3°C 73.9°F23.3°C 66% 3.0 mph SSE4.8 kmh SSE 8.0 mph12.9 kmh 30.09 in1019.0 mb 0.00 in0.0 mm 0.00 in0.0 mm 0.00 in0.0 mm
02:00 PM 86.3°F30.2°C 73.6°F23.1°C 66% 3.0 mph S4.8 kmh S 5.0 mph8.0 kmh 30.09 in1019.0 mb 0.00 in0.0 mm 0.00 in0.0 mm 0.00 in0.0 mm
02:05 PM 85.9°F29.9°C 73.2°F22.9°C 66% 3.0 mph SSW4.8 kmh SSW 6.0 mph9.7 kmh 30.09 in1019.0 mb 0.00 in0.0 mm 0.00 in0.0 mm 0.00 in0.0 mm
02:10 PM 85.1°F29.5°C 72.5°F22.5°C 66% 4.0 mph S6.4 kmh S 9.0 mph14.5 kmh 30.09 in1019.0 mb 0.00 in0.0 mm 0.00 in0.0 mm 0.00 in0.0 mm
02:15 PM 84.5°F29.2°C 72.3°F22.4°C 67% 4.0 mph SSW6.4 kmh SSW 9.0 mph14.5 kmh 30.09 in1019.0 mb 0.00 in0.0 mm 0.00 in0.0 mm 0.00 in0.0 mm
02:20 PM 84.2°F29.0°C 72.0°F22.2°C 67% 4.0 mph SSW6.4 kmh SSW 9.0 mph14.5 kmh 30.08 in1018.6 mb 0.00 in0.0 mm 0.00 in0.0 mm 0.00 in0.0 mm
02:25 PM 84.2°F29.0°C 72.0°F22.2°C 67% 3.0 mph SW4.8 kmh SW 9.0 mph14.5 kmh 30.09 in1019.0 mb 0.00 in0.0 mm 0.00 in0.0 mm 0.00 in0.0 mm
02:30 PM 84.3°F29.1°C 72.1°F22.3°C 67% 3.0 mph SSW4.8 kmh SSW 9.0 mph14.5 kmh 30.08 in1018.6 mb 0.00 in0.0 mm 0.00 in0.0 mm 0.00 in0.0 mm
02:35 PM 84.3°F29.1°C 72.1°F22.3°C 67% 4.0 mph S6.4 kmh S 9.0 mph14.5 kmh 30.08 in1018.6 mb 0.00 in0.0 mm 0.00 in0.0 mm 0.00 in0.0 mm
02:40 PM 84.4°F29.1°C 72.2°F22.3°C 67% 4.0 mph S6.4 kmh S 10.0 mph16.1 kmh 30.08 in1018.6 mb 0.00 in0.0 mm 0.00 in0.0 mm 0.00 in0.0 mm
02:45 PM 84.5°F29.2°C 72.3°F22.4°C 67% 3.0 mph SW4.8 kmh SW 10.0 mph16.1 kmh 30.08 in1018.6 mb 0.00 in0.0 mm 0.00 in0.0 mm 0.00 in0.0 mm
02:50 PM 84.6°F29.2°C 72.4°F22.4°C 67% 4.0 mph SSW6.4 kmh SSW 7.0 mph11.3 kmh 30.07 in1018.3 mb 0.00 in0.0 mm 0.00 in0.0 mm 0.00 in0.0 mm
02:55 PM 85.3°F29.6°C 73.1°F22.8°C 67% 4.0 mph S6.4 kmh S 7.0 mph11.3 kmh 30.07 in1018.3 mb 0.00 in0.0 mm 0.00 in0.0 mm 0.00 in0.0 mm
03:00 PM 86.1°F30.1°C 73.4°F23.0°C 66% 4.0 mph S6.4 kmh S 10.0 mph16.1 kmh 30.07 in1018.3 mb 0.00 in0.0 mm 0.00 in0.0 mm 0.00 in0.0 mm
03:05 PM 86.2°F30.1°C 73.5°F23.1°C 66% 4.0 mph S6.4 kmh S 10.0 mph16.1 kmh 30.07 in1018.3 mb 0.00 in0.0 mm 0.00 in0.0 mm 0.00 in0.0 mm
03:10 PM 85.9°F29.9°C 73.7°F23.2°C 67% 3.0 mph SSW4.8 kmh SSW 6.0 mph9.7 kmh 30.07 in1018.3 mb 0.00 in0.0 mm 0.00 in0.0 mm 0.00 in0.0 mm
03:15 PM 85.6°F29.8°C 73.4°F23.0°C 67% 2.0 mph W3.2 kmh W 5.0 mph8.0 kmh 30.07 in1018.3 mb 0.00 in0.0 mm 0.00 in0.0 mm 0.00 in0.0 mm
03:20 PM 85.2°F29.6°C 73.0°F22.8°C 67% 2.0 mph NW3.2 kmh NW 5.0 mph8.0 kmh 30.07 in1018.3 mb 0.00 in0.0 mm 0.00 in0.0 mm 0.00 in0.0 mm
03:25 PM 85.5°F29.7°C 73.3°F22.9°C 67% 3.0 mph NW4.8 kmh NW 7.0 mph11.3 kmh 30.07 in1018.3 mb 0.00 in0.0 mm 0.00 in0.0 mm 0.00 in0.0 mm
03:30 PM 85.6°F29.8°C 73.4°F23.0°C 67% 3.0 mph WNW4.8 kmh WNW 7.0 mph11.3 kmh 30.06 in1017.9 mb 0.00 in0.0 mm 0.00 in0.0 mm 0.00 in0.0 mm
03:35 PM 85.3°F29.6°C 73.1°F22.8°C 67% 3.0 mph WNW4.8 kmh WNW 5.0 mph8.0 kmh 30.06 in1017.9 mb 0.00 in0.0 mm 0.00 in0.0 mm 0.00 in0.0 mm
03:40 PM 85.1°F29.5°C 72.9°F22.7°C 67% 2.0 mph NW3.2 kmh NW 4.0 mph6.4 kmh 30.06 in1017.9 mb 0.00 in0.0 mm 0.00 in0.0 mm 0.00 in0.0 mm
03:45 PM 85.1°F29.5°C 72.9°F22.7°C 67% 2.0 mph WNW3.2 kmh WNW 4.0 mph6.4 kmh 30.06 in1017.9 mb 0.00 in0.0 mm 0.00 in0.0 mm 0.00 in0.0 mm
03:50 PM 85.7°F29.8°C 73.5°F23.1°C 67% 2.0 mph W3.2 kmh W 4.0 mph6.4 kmh 30.06 in1017.9 mb 0.00 in0.0 mm 0.00 in0.0 mm 0.00 in0.0 mm
03:55 PM 86.1°F30.1°C 73.4°F23.0°C 66% 2.0 mph W3.2 kmh W 5.0 mph8.0 kmh 30.05 in1017.6 mb 0.00 in0.0 mm 0.00 in0.0 mm 0.00 in0.0 mm
04:00 PM 86.2°F30.1°C 73.5°F23.1°C 66% 1.0 mph S1.6 kmh S 5.0 mph8.0 kmh 30.06 in1017.9 mb 0.00 in0.0 mm 0.00 in0.0 mm 0.00 in0.0 mm
04:05 PM 86.3°F30.2°C 73.6°F23.1°C 66% 1.0 mph SSE1.6 kmh SSE 4.0 mph6.4 kmh 30.05 in1017.6 mb 0.00 in0.0 mm 0.00 in0.0 mm 0.00 in0.0 mm
04:10 PM 86.1°F30.1°C 73.4°F23.0°C 66% 2.0 mph SSE3.2 kmh SSE 6.0 mph9.7 kmh 30.05 in1017.6 mb 0.00 in0.0 mm 0.00 in0.0 mm 0.00 in0.0 mm
04:15 PM 86.1°F30.1°C 73.9°F23.3°C 67% 3.0 mph SSE4.8 kmh SSE 7.0 mph11.3 kmh 30.06 in1017.9 mb 0.00 in0.0 mm 0.00 in0.0 mm 0.00 in0.0 mm
04:20 PM 86.3°F30.2°C 73.6°F23.1°C 66% 3.0 mph SE4.8 kmh SE 7.0 mph11.3 kmh 30.05 in1017.6 mb 0.00 in0.0 mm 0.00 in0.0 mm 0.00 in0.0 mm
04:25 PM 86.4°F30.2°C 73.7°F23.2°C 66% 2.0 mph SSW3.2 kmh SSW 6.0 mph9.7 kmh 30.06 in1017.9 mb 0.00 in0.0 mm 0.00 in0.0 mm 0.00 in0.0 mm
04:30 PM 86.4°F30.2°C 74.1°F23.4°C 67% 2.0 mph WNW3.2 kmh WNW 6.0 mph9.7 kmh 30.05 in1017.6 mb 0.00 in0.0 mm 0.00 in0.0 mm 0.00 in0.0 mm
04:35 PM 86.2°F30.1°C 73.5°F23.1°C 66% 3.0 mph NW4.8 kmh NW 8.0 mph12.9 kmh 30.06 in1017.9 mb 0.00 in0.0 mm 0.00 in0.0 mm 0.00 in0.0 mm
04:40 PM 86.4°F30.2°C 74.1°F23.4°C 67% 3.0 mph NW4.8 kmh NW 8.0 mph12.9 kmh 30.05 in1017.6 mb 0.00 in0.0 mm 0.00 in0.0 mm 0.00 in0.0 mm
04:45 PM 86.8°F30.4°C 74.1°F23.4°C 66% 3.0 mph NW4.8 kmh NW 6.0 mph9.7 kmh 30.05 in1017.6 mb 0.00 in0.0 mm 0.00 in0.0 mm 0.00 in0.0 mm
04:50 PM 86.5°F30.3°C 73.8°F23.2°C 66% 2.0 mph NW3.2 kmh NW 6.0 mph9.7 kmh 30.05 in1017.6 mb 0.00 in0.0 mm 0.00 in0.0 mm 0.00 in0.0 mm
04:55 PM 86.1°F30.1°C 73.9°F23.3°C 67% 2.0 mph WNW3.2 kmh WNW 6.0 mph9.7 kmh 30.05 in1017.6 mb 0.00 in0.0 mm 0.00 in0.0 mm 0.00 in0.0 mm
05:00 PM 85.7°F29.8°C 73.5°F23.1°C 67% 1.0 mph NW1.6 kmh NW 4.0 mph6.4 kmh 30.06 in1017.9 mb 0.00 in0.0 mm 0.00 in0.0 mm 0.00 in0.0 mm
05:05 PM 85.5°F29.7°C 73.3°F22.9°C 67% 1.0 mph NW1.6 kmh NW 2.0 mph3.2 kmh 30.05 in1017.6 mb 0.00 in0.0 mm 0.00 in0.0 mm 0.00 in0.0 mm
05:10 PM 85.4°F29.7°C 73.2°F22.9°C 67% 1.0 mph NW1.6 kmh NW 3.0 mph4.8 kmh 30.05 in1017.6 mb 0.00 in0.0 mm 0.00 in0.0 mm 0.00 in0.0 mm
05:15 PM 85.1°F29.5°C 73.3°F22.9°C 68% 2.0 mph NW3.2 kmh NW 3.0 mph4.8 kmh 30.05 in1017.6 mb 0.00 in0.0 mm 0.00 in0.0 mm 0.00 in0.0 mm
05:20 PM 84.9°F29.4°C 72.7°F22.6°C 67% 2.0 mph WSW3.2 kmh WSW 4.0 mph6.4 kmh 30.05 in1017.6 mb 0.00 in0.0 mm 0.00 in0.0 mm 0.00 in0.0 mm
05:25 PM 84.8°F29.3°C 73.1°F22.8°C 68% 2.0 mph SW3.2 kmh SW 4.0 mph6.4 kmh 30.06 in1017.9 mb 0.00 in0.0 mm 0.00 in0.0 mm 0.00 in0.0 mm
05:30 PM 85.2°F29.6°C 73.4°F23.0°C 68% 2.0 mph SW3.2 kmh SW 4.0 mph6.4 kmh 30.06 in1017.9 mb 0.00 in0.0 mm 0.00 in0.0 mm 0.00 in0.0 mm
05:35 PM 85.9°F29.9°C 73.7°F23.2°C 67% 2.0 mph SW3.2 kmh SW 4.0 mph6.4 kmh 30.06 in1017.9 mb 0.00 in0.0 mm 0.00 in0.0 mm 0.00 in0.0 mm
05:40 PM 86.4°F30.2°C 73.7°F23.2°C 66% 2.0 mph WSW3.2 kmh WSW 5.0 mph8.0 kmh 30.06 in1017.9 mb 0.00 in0.0 mm 0.00 in0.0 mm 0.00 in0.0 mm
05:45 PM 86.2°F30.1°C 73.5°F23.1°C 66% 2.0 mph WSW3.2 kmh WSW 7.0 mph11.3 kmh 30.06 in1017.9 mb 0.00 in0.0 mm 0.00 in0.0 mm 0.00 in0.0 mm
05:50 PM 85.7°F29.8°C 73.0°F22.8°C 66% 3.0 mph WSW4.8 kmh WSW 8.0 mph12.9 kmh 30.06 in1017.9 mb 0.00 in0.0 mm 0.00 in0.0 mm 0.00 in0.0 mm
05:55 PM 85.2°F29.6°C 73.0°F22.8°C 67% 3.0 mph WSW4.8 kmh WSW 8.0 mph12.9 kmh 30.06 in1017.9 mb 0.00 in0.0 mm 0.00 in0.0 mm 0.00 in0.0 mm
06:00 PM 84.7°F29.3°C 72.5°F22.5°C 67% 2.0 mph WSW3.2 kmh WSW 5.0 mph8.0 kmh 30.06 in1017.9 mb 0.00 in0.0 mm 0.00 in0.0 mm 0.00 in0.0 mm
06:05 PM 84.4°F29.1°C 72.7°F22.6°C 68% 2.0 mph WSW3.2 kmh WSW 4.0 mph6.4 kmh 30.06 in1017.9 mb 0.00 in0.0 mm 0.00 in0.0 mm 0.00 in0.0 mm
06:10 PM 84.1°F28.9°C 72.4°F22.4°C 68% 1.0 mph WSW1.6 kmh WSW 3.0 mph4.8 kmh 30.07 in1018.3 mb 0.00 in0.0 mm 0.00 in0.0 mm 0.00 in0.0 mm
06:15 PM 83.9°F28.8°C 72.2°F22.3°C 68% 1.0 mph WSW1.6 kmh WSW 3.0 mph4.8 kmh 30.07 in1018.3 mb 0.00 in0.0 mm 0.00 in0.0 mm 0.00 in0.0 mm
06:20 PM 83.7°F28.7°C 72.0°F22.2°C 68% 1.0 mph WSW1.6 kmh WSW 3.0 mph4.8 kmh 30.07 in1018.3 mb 0.00 in0.0 mm 0.00 in0.0 mm 0.00 in0.0 mm
06:25 PM 83.4°F28.6°C 71.7°F22.1°C 68% 2.0 mph WSW3.2 kmh WSW 4.0 mph6.4 kmh 30.07 in1018.3 mb 0.00 in0.0 mm 0.00 in0.0 mm 0.00 in0.0 mm
06:30 PM 83.1°F28.4°C 71.4°F21.9°C 68% 3.0 mph WSW4.8 kmh WSW 7.0 mph11.3 kmh 30.07 in1018.3 mb 0.00 in0.0 mm 0.00 in0.0 mm 0.00 in0.0 mm
06:35 PM 83.0°F28.3°C 71.3°F21.8°C 68% 2.0 mph WSW3.2 kmh WSW 7.0 mph11.3 kmh 30.07 in1018.3 mb 0.00 in0.0 mm 0.00 in0.0 mm 0.00 in0.0 mm
06:40 PM 83.0°F28.3°C 71.3°F21.8°C 68% 1.0 mph WSW1.6 kmh WSW 4.0 mph6.4 kmh 30.07 in1018.3 mb 0.00 in0.0 mm 0.00 in0.0 mm 0.00 in0.0 mm
06:45 PM 83.0°F28.3°C 71.3°F21.8°C 68% 1.0 mph WSW1.6 kmh WSW 3.0 mph4.8 kmh 30.08 in1018.6 mb 0.00 in0.0 mm 0.00 in0.0 mm 0.00 in0.0 mm
06:50 PM 82.8°F28.2°C 71.2°F21.8°C 68% 1.0 mph WSW1.6 kmh WSW 3.0 mph4.8 kmh 30.08 in1018.6 mb 0.00 in0.0 mm 0.00 in0.0 mm 0.00 in0.0 mm
06:55 PM 82.7°F28.2°C 71.1°F21.7°C 68% 1.0 mph WSW1.6 kmh WSW 3.0 mph4.8 kmh 30.08 in1018.6 mb 0.00 in0.0 mm 0.00 in0.0 mm 0.00 in0.0 mm
07:00 PM 82.4°F28.0°C 70.8°F21.6°C 68% 1.0 mph WSW1.6 kmh WSW 4.0 mph6.4 kmh 30.08 in1018.6 mb 0.00 in0.0 mm 0.00 in0.0 mm 0.00 in0.0 mm
07:05 PM 82.2°F27.9°C 70.6°F21.4°C 68% 2.0 mph W3.2 kmh W 4.0 mph6.4 kmh 30.08 in1018.6 mb 0.00 in0.0 mm 0.00 in0.0 mm 0.00 in0.0 mm
07:10 PM 81.9°F27.7°C 70.3°F21.3°C 68% 1.0 mph WSW1.6 kmh WSW 4.0 mph6.4 kmh 30.08 in1018.6 mb 0.00 in0.0 mm 0.00 in0.0 mm 0.00 in0.0 mm
07:15 PM 81.6°F27.6°C 70.0°F21.1°C 68% 1.0 mph WSW1.6 kmh WSW 4.0 mph6.4 kmh 30.09 in1019.0 mb 0.00 in0.0 mm 0.00 in0.0 mm 0.00 in0.0 mm
07:20 PM 81.3°F27.4°C 69.7°F20.9°C 68% 1.0 mph WSW1.6 kmh WSW 3.0 mph4.8 kmh 30.09 in1019.0 mb 0.00 in0.0 mm 0.00 in0.0 mm 0.00 in0.0 mm
07:25 PM 80.9°F27.2°C 69.3°F20.7°C 68% 1.0 mph WSW1.6 kmh WSW 2.0 mph3.2 kmh 30.09 in1019.0 mb 0.00 in0.0 mm 0.00 in0.0 mm 0.00 in0.0 mm
07:30 PM 80.5°F26.9°C 69.0°F20.6°C 68% 1.0 mph WSW1.6 kmh WSW 3.0 mph4.8 kmh 30.09 in1019.0 mb 0.00 in0.0 mm 0.00 in0.0 mm 0.00 in0.0 mm
07:35 PM 80.1°F26.7°C 68.6°F20.3°C 68% 1.0 mph WSW1.6 kmh WSW 3.0 mph4.8 kmh 30.09 in1019.0 mb 0.00 in0.0 mm 0.00 in0.0 mm 0.00 in0.0 mm
07:40 PM 79.6°F26.4°C 68.1°F20.1°C 68% 1.0 mph WSW1.6 kmh WSW 3.0 mph4.8 kmh 30.09 in1019.0 mb 0.00 in0.0 mm 0.00 in0.0 mm 0.00 in0.0 mm
07:45 PM 79.1°F26.2°C 67.2°F19.6°C 67% 1.0 mph WSW1.6 kmh WSW 2.0 mph3.2 kmh 30.09 in1019.0 mb 0.00 in0.0 mm 0.00 in0.0 mm 0.00 in0.0 mm
07:50 PM 78.7°F25.9°C 66.8°F19.3°C 67% Calm Calm 2.0 mph3.2 kmh 30.09 in1019.0 mb 0.00 in0.0 mm 0.00 in0.0 mm 0.00 in0.0 mm
07:55 PM 78.3°F25.7°C 66.4°F19.1°C 67% Calm Calm 1.0 mph1.6 kmh 30.10 in1019.3 mb 0.00 in0.0 mm 0.00 in0.0 mm 0.00 in0.0 mm
08:00 PM 77.8°F25.4°C 65.5°F18.6°C 66% Calm Calm 1.0 mph1.6 kmh 30.10 in1019.3 mb 0.00 in0.0 mm 0.00 in0.0 mm 0.00 in0.0 mm
08:05 PM 77.4°F25.2°C 64.3°F17.9°C 64% Calm Calm 1.0 mph1.6 kmh 30.10 in1019.3 mb 0.00 in0.0 mm 0.00 in0.0 mm 0.00 in0.0 mm
08:10 PM 77.0°F25.0°C 63.4°F17.4°C 63% Calm Calm 1.0 mph1.6 kmh 30.10 in1019.3 mb 0.00 in0.0 mm 0.00 in0.0 mm 0.00 in0.0 mm
08:15 PM 76.5°F24.7°C 62.0°F16.7°C 61% Calm Calm -- 30.10 in1019.3 mb 0.00 in0.0 mm 0.00 in0.0 mm 0.00 in0.0 mm
08:20 PM 76.1°F24.5°C 61.2°F16.2°C 60% Calm Calm 1.0 mph1.6 kmh 30.10 in1019.3 mb 0.00 in0.0 mm 0.00 in0.0 mm 0.00 in0.0 mm
08:25 PM 75.7°F24.3°C 59.9°F15.5°C 58% Calm Calm 1.0 mph1.6 kmh 30.11 in1019.6 mb 0.00 in0.0 mm 0.00 in0.0 mm 0.00 in0.0 mm
08:30 PM 75.3°F24.1°C 58.5°F14.7°C 56% Calm Calm -- 30.11 in1019.6 mb 0.00 in0.0 mm 0.00 in0.0 mm 0.00 in0.0 mm
08:35 PM 74.9°F23.8°C 58.1°F14.5°C 56% Calm Calm -- 30.11 in1019.6 mb 0.00 in0.0 mm 0.00 in0.0 mm 0.00 in0.0 mm
08:40 PM 74.5°F23.6°C 57.3°F14.1°C 55% Calm Calm -- 30.11 in1019.6 mb 0.00 in0.0 mm 0.00 in0.0 mm 0.00 in0.0 mm
08:45 PM 74.1°F23.4°C 54.8°F12.7°C 51% Calm Calm -- 30.11 in1019.6 mb 0.00 in0.0 mm 0.00 in0.0 mm 0.00 in0.0 mm
08:50 PM 73.7°F23.2°C 51.6°F10.9°C 46% Calm Calm -- 30.11 in1019.6 mb 0.00 in0.0 mm 0.00 in0.0 mm 0.00 in0.0 mm
08:55 PM 73.3°F22.9°C 50.1°F10.1°C 44% Calm Calm -- 30.11 in1019.6 mb 0.00 in0.0 mm 0.00 in0.0 mm 0.00 in0.0 mm
09:00 PM 72.9°F22.7°C 47.8°F8.8°C 41% Calm Calm -- 30.12 in1020.0 mb 0.00 in0.0 mm 0.00 in0.0 mm 0.00 in0.0 mm
09:05 PM 72.6°F22.6°C 44.8°F7.1°C 37% Calm Calm -- 30.12 in1020.0 mb 0.00 in0.0 mm 0.00 in0.0 mm 0.00 in0.0 mm
09:10 PM 72.3°F22.4°C 42.3°F5.7°C 34% Calm Calm -- 30.12 in1020.0 mb 0.00 in0.0 mm 0.00 in0.0 mm 0.00 in0.0 mm
09:15 PM 72.1°F22.3°C 38.1°F3.4°C 29% Calm Calm -- 30.12 in1020.0 mb 0.00 in0.0 mm 0.00 in0.0 mm 0.00 in0.0 mm
09:20 PM 71.9°F22.2°C 35.1°F1.7°C 26% Calm Calm 1.0 mph1.6 kmh 30.13 in1020.3 mb 0.00 in0.0 mm 0.00 in0.0 mm 0.00 in0.0 mm
09:25 PM 71.7°F22.1°C 33.0°F0.6°C 24% Calm Calm 1.0 mph1.6 kmh 30.13 in1020.3 mb 0.00 in0.0 mm 0.00 in0.0 mm 0.00 in0.0 mm
09:30 PM 71.5°F21.9°C 32.8°F0.4°C 24% Calm Calm 1.0 mph1.6 kmh 30.13 in1020.3 mb 0.00 in0.0 mm 0.00 in0.0 mm 0.00 in0.0 mm
09:35 PM 71.4°F21.9°C 25.7°F-3.5°C 18% Calm Calm -- 30.13 in1020.3 mb 0.00 in0.0 mm 0.00 in0.0 mm 0.00 in0.0 mm
09:40 PM 71.3°F21.8°C 22.7°F-5.2°C 16% Calm Calm -- 30.14 in1020.7 mb 0.00 in0.0 mm 0.00 in0.0 mm 0.00 in0.0 mm
09:45 PM 71.3°F21.8°C 14.0°F-10.0°C 11% Calm Calm -- 30.14 in1020.7 mb 0.00 in0.0 mm 0.00 in0.0 mm 0.00 in0.0 mm
09:50 PM 71.3°F21.8°C 9.5°F-12.5°C 9% Calm Calm 1.0 mph1.6 kmh 30.14 in1020.7 mb 0.00 in0.0 mm 0.00 in0.0 mm 0.00 in0.0 mm
09:55 PM 71.2°F21.8°C 9.4°F-12.6°C 9% Calm Calm 1.0 mph1.6 kmh 30.14 in1020.7 mb 0.00 in0.0 mm 0.00 in0.0 mm 0.00 in0.0 mm
10:00 PM 71.1°F21.7°C 6.7°F-14.1°C 8% Calm Calm 1.0 mph1.6 kmh 30.14 in1020.7 mb 0.00 in0.0 mm 0.00 in0.0 mm 0.00 in0.0 mm
10:05 PM 71.0°F21.7°C -3.5°F-19.7°C 5% Calm Calm -- 30.14 in1020.7 mb 0.00 in0.0 mm 0.00 in0.0 mm 0.00 in0.0 mm
10:10 PM 70.8°F21.6°C -14.0°F-25.6°C 3% Calm Calm -- 30.14 in1020.7 mb 0.00 in0.0 mm 0.00 in0.0 mm 0.00 in0.0 mm
10:15 PM 70.7°F21.5°C -34.7°F-37.1°C 0% Calm Calm -- 30.14 in1020.7 mb 0.00 in0.0 mm 0.00 in0.0 mm 0.00 in0.0 mm
10:20 PM 70.6°F21.4°C -34.7°F-37.1°C 0% Calm Calm 1.0 mph1.6 kmh 30.15 in1021.0 mb 0.00 in0.0 mm 0.00 in0.0 mm 0.00 in0.0 mm
10:25 PM 70.4°F21.3°C -34.7°F-37.1°C 0% Calm Calm 1.0 mph1.6 kmh 30.15 in1021.0 mb 0.00 in0.0 mm 0.00 in0.0 mm 0.00 in0.0 mm
10:30 PM 70.3°F21.3°C -34.7°F-37.1°C 0% Calm Calm -- 30.15 in1021.0 mb 0.00 in0.0 mm 0.00 in0.0 mm 0.00 in0.0 mm
10:35 PM 70.3°F21.3°C -34.7°F-37.1°C 0% Calm Calm -- 30.15 in1021.0 mb 0.00 in0.0 mm 0.00 in0.0 mm 0.00 in0.0 mm
10:40 PM 70.1°F21.2°C -34.7°F-37.1°C 0% Calm Calm -- 30.15 in1021.0 mb 0.00 in0.0 mm 0.00 in0.0 mm 0.00 in0.0 mm
10:45 PM 70.0°F21.1°C -34.7°F-37.1°C 0% Calm Calm -- 30.15 in1021.0 mb 0.00 in0.0 mm 0.00 in0.0 mm 0.00 in0.0 mm
10:50 PM 69.9°F21.1°C -34.7°F-37.1°C 0% Calm Calm -- 30.15 in1021.0 mb 0.00 in0.0 mm 0.00 in0.0 mm 0.00 in0.0 mm
10:55 PM 69.9°F21.1°C -34.7°F-37.1°C 0% Calm Calm 1.0 mph1.6 kmh 30.15 in1021.0 mb 0.00 in0.0 mm 0.00 in0.0 mm 0.00 in0.0 mm
11:00 PM 69.9°F21.1°C -34.7°F-37.1°C 0% Calm Calm 1.0 mph1.6 kmh 30.15 in1021.0 mb 0.00 in0.0 mm 0.00 in0.0 mm 0.00 in0.0 mm
11:05 PM 69.8°F21.0°C -34.7°F-37.1°C 0% Calm Calm -- 30.16 in1021.3 mb 0.00 in0.0 mm 0.00 in0.0 mm 0.00 in0.0 mm
11:10 PM 69.8°F21.0°C -34.7°F-37.1°C 0% Calm Calm -- 30.15 in1021.0 mb 0.00 in0.0 mm 0.00 in0.0 mm 0.00 in0.0 mm
11:15 PM 69.8°F21.0°C -34.7°F-37.1°C 0% Calm Calm -- 30.15 in1021.0 mb 0.00 in0.0 mm 0.00 in0.0 mm 0.00 in0.0 mm
11:20 PM 69.6°F20.9°C -34.7°F-37.1°C 0% Calm Calm -- 30.15 in1021.0 mb 0.00 in0.0 mm 0.00 in0.0 mm 0.00 in0.0 mm
11:25 PM 69.6°F20.9°C -34.7°F-37.1°C 0% 1.0 mph W1.6 kmh W 4.0 mph6.4 kmh 30.16 in1021.3 mb 0.00 in0.0 mm 0.00 in0.0 mm 0.00 in0.0 mm
11:30 PM 70.1°F21.2°C -34.7°F-37.1°C 0% 2.0 mph NNW3.2 kmh NNW 5.0 mph8.0 kmh 30.16 in1021.3 mb 0.00 in0.0 mm 0.00 in0.0 mm 0.00 in0.0 mm
11:35 PM 70.3°F21.3°C -34.7°F-37.1°C 0% 2.0 mph N3.2 kmh N 5.0 mph8.0 kmh 30.16 in1021.3 mb 0.00 in0.0 mm 0.00 in0.0 mm 0.00 in0.0 mm
11:40 PM 70.4°F21.3°C -34.7°F-37.1°C 0% 1.0 mph N1.6 kmh N 3.0 mph4.8 kmh 30.16 in1021.3 mb 0.00 in0.0 mm 0.00 in0.0 mm 0.00 in0.0 mm
11:45 PM 70.4°F21.3°C -34.7°F-37.1°C 0% Calm Calm 2.0 mph3.2 kmh 30.16 in1021.3 mb 0.00 in0.0 mm 0.00 in0.0 mm 0.00 in0.0 mm
11:50 PM 70.3°F21.3°C -34.7°F-37.1°C 0% Calm Calm 1.0 mph1.6 kmh 30.16 in1021.3 mb 0.00 in0.0 mm 0.00 in0.0 mm 0.00 in0.0 mm
11:55 PM 70.2°F21.2°C -34.7°F-37.1°C 0% Calm Calm 2.0 mph3.2 kmh 30.16 in1021.3 mb 0.00 in0.0 mm 0.00 in0.0 mm 0.00 in0.0 mm